createdAt,value
2022-09-03T00:00:14.570Z,100441.16
2022-09-03T00:05:20.055Z,100440.00
2022-09-03T00:10:25.431Z,100430.66
2022-09-03T00:15:29.517Z,100432.06
2022-09-03T00:20:33.173Z,100426.13
2022-09-03T00:25:38.559Z,100431.91
2022-09-03T00:30:43.813Z,100430.66
2022-09-03T00:35:48.602Z,100432.06
2022-09-03T00:41:01.613Z,100430.50
2022-09-03T00:46:08.962Z,100426.81
2022-09-03T00:51:16.809Z,100434.59
2022-09-03T00:56:23.269Z,100434.00
2022-09-03T01:01:31.055Z,100436.28
2022-09-03T01:06:36.667Z,100423.22
2022-09-03T01:11:47.136Z,100431.69
2022-09-03T01:16:53.318Z,100429.16
2022-09-03T01:22:05.589Z,100422.34
2022-09-03T01:27:16.531Z,100427.13
2022-09-03T01:32:24.921Z,100431.13
2022-09-03T01:37:34.042Z,100433.97
2022-09-03T01:42:44.076Z,100439.75
2022-09-03T01:47:56.081Z,100439.03
2022-09-03T01:53:03.024Z,100428.25
2022-09-03T01:58:07.617Z,100435.50
2022-09-03T02:03:11.576Z,100437.34
2022-09-03T02:08:14.223Z,100432.81
2022-09-03T02:13:18.483Z,100434.50
2022-09-03T02:18:24.083Z,100431.94
2022-09-03T02:23:31.935Z,100428.25
2022-09-03T02:28:34.632Z,100430.38
2022-09-03T02:33:39.825Z,100432.34
2022-09-03T02:38:43.031Z,100431.50
2022-09-03T02:43:48.531Z,100441.44
2022-09-03T02:48:53.009Z,100437.88
2022-09-03T02:53:55.943Z,100428.22
2022-09-03T02:58:58.679Z,100434.34
2022-09-03T03:04:03.032Z,100429.22
2022-09-03T03:09:07.019Z,100425.69
2022-09-03T03:14:10.669Z,100420.56
2022-09-03T03:19:14.758Z,100416.28
2022-09-03T03:24:17.555Z,100428.91
2022-09-03T03:29:20.667Z,100420.25
2022-09-03T03:34:24.693Z,100423.22
2022-09-03T03:39:27.463Z,100439.53
2022-09-03T03:44:30.185Z,100434.41
2022-09-03T03:49:34.526Z,100430.16
2022-09-03T03:54:37.339Z,100434.34
2022-09-03T03:59:40.061Z,100426.81
2022-09-03T04:04:44.232Z,100425.13
2022-09-03T04:09:47.335Z,100419.16
2022-09-03T04:14:50.283Z,100419.16
2022-09-03T04:19:54.328Z,100415.00
2022-09-03T04:24:57.114Z,100416.13
2022-09-03T04:29:59.849Z,100403.22
2022-09-03T04:35:06.707Z,100416.56
2022-09-03T04:40:10.044Z,100417.81
2022-09-03T04:45:18.660Z,100421.06
2022-09-03T04:50:23.655Z,100421.16
2022-09-03T04:55:35.160Z,100415.91
2022-09-03T05:00:37.947Z,100427.69
2022-09-03T05:05:42.418Z,100427.25
2022-09-03T05:10:45.084Z,100428.34
2022-09-03T05:15:47.958Z,100431.03
2022-09-03T05:20:59.023Z,100434.72
2022-09-03T05:26:02.568Z,100430.19
2022-09-03T05:31:06.468Z,100429.34
2022-09-03T05:36:13.076Z,100440.25
2022-09-03T05:41:16.236Z,100442.09
2022-09-03T05:46:21.692Z,100447.47
2022-09-03T05:51:25.715Z,100442.66
2022-09-03T05:56:29.732Z,100439.00
2022-09-03T06:01:33.141Z,100443.53
2022-09-03T06:06:38.231Z,100439.84
2022-09-03T06:11:42.680Z,100437.41
2022-09-03T06:16:48.921Z,100454.44
2022-09-03T06:21:53.119Z,100459.72
2022-09-03T06:26:56.229Z,100451.63
2022-09-03T06:31:59.425Z,100455.28
2022-09-03T06:37:03.478Z,100459.81
2022-09-03T06:42:06.805Z,100457.88
2022-09-03T06:47:12.373Z,100461.41
2022-09-03T06:52:16.617Z,100448.78
2022-09-03T06:57:20.351Z,100446.94
2022-09-03T07:02:23.253Z,100449.50
2022-09-03T07:07:27.481Z,100451.22
2022-09-03T07:12:30.181Z,100455.59
2022-09-03T07:17:32.884Z,100448.09
2022-09-03T07:22:37.022Z,100450.69
2022-09-03T07:27:39.758Z,100451.69
2022-09-03T07:32:42.483Z,100451.06
2022-09-03T07:37:46.556Z,100441.34
2022-09-03T07:42:54.540Z,100438.88
2022-09-03T07:47:57.935Z,100449.06
2022-09-03T07:53:02.053Z,100445.19
2022-09-03T07:58:04.814Z,100444.22
2022-09-03T08:03:08.753Z,100451.03
2022-09-03T08:08:25.588Z,100451.63
2022-09-03T08:13:33.964Z,100453.06
2022-09-03T08:18:37.696Z,100453.81
2022-09-03T08:23:42.650Z,100450.91
2022-09-03T08:28:45.522Z,100448.09
2022-09-03T08:33:49.030Z,100436.47
2022-09-03T08:38:55.196Z,100432.91
2022-09-03T08:44:08.752Z,100435.53
2022-09-03T08:49:12.409Z,100428.44
2022-09-03T08:54:16.422Z,100435.75
2022-09-03T08:59:20.813Z,100442.38
2022-09-03T09:04:42.190Z,100427.78
2022-09-03T09:09:49.887Z,100429.81
2022-09-03T09:15:00.301Z,100430.13
2022-09-03T09:20:08.134Z,100421.53
2022-09-03T09:25:14.605Z,100403.25
2022-09-03T09:30:18.079Z,100406.53
2022-09-03T09:35:21.052Z,100391.81
2022-09-03T09:40:33.044Z,100387.88
2022-09-03T09:45:37.305Z,100384.03
2022-09-03T09:50:40.052Z,100387.44
2022-09-03T09:55:54.603Z,100375.16
2022-09-03T10:01:03.069Z,100374.16
2022-09-03T10:06:21.392Z,100377.69
2022-09-03T10:11:27.468Z,100384.50
2022-09-03T10:16:31.638Z,100373.63
2022-09-03T10:21:38.963Z,100381.28
2022-09-03T10:26:44.589Z,100371.84
2022-09-03T10:31:55.203Z,100371.72
2022-09-03T10:37:01.480Z,100361.09
2022-09-03T10:42:09.609Z,100355.88
2022-09-03T10:47:21.705Z,100361.41
2022-09-03T10:52:28.714Z,100350.75
2022-09-03T10:57:39.080Z,100344.09
2022-09-03T11:03:07.350Z,100346.81
2022-09-03T11:08:13.297Z,100335.56
2022-09-03T11:13:20.087Z,100327.50
2022-09-03T11:18:25.039Z,100319.16
2022-09-03T11:23:28.368Z,100317.41
2022-09-03T11:28:38.557Z,100319.25
2022-09-03T11:33:42.810Z,100317.84
2022-09-03T11:38:45.673Z,100322.53
2022-09-03T11:43:49.994Z,100316.00
2022-09-03T11:48:53.918Z,100312.28
2022-09-03T11:53:57.017Z,100304.91
2022-09-03T11:59:04.145Z,100302.47
2022-09-03T12:04:07.650Z,100299.09
2022-09-03T12:09:21.234Z,100285.28
2022-09-03T12:14:28.180Z,100274.91
2022-09-03T12:19:36.583Z,100269.22
2022-09-03T12:24:39.428Z,100280.44
2022-09-03T12:29:51.855Z,100272.44
2022-09-03T12:34:54.958Z,100275.28
2022-09-03T12:40:07.759Z,100264.59
2022-09-03T12:45:16.470Z,100263.31
2022-09-03T12:50:20.491Z,100260.88
2022-09-03T12:55:29.096Z,100249.81
2022-09-03T13:00:33.952Z,100235.31
2022-09-03T13:05:39.061Z,100244.94
2022-09-03T13:10:42.511Z,100245.09
2022-09-03T13:15:57.233Z,100234.81
2022-09-03T13:21:08.050Z,100222.72
2022-09-03T13:26:18.791Z,100228.47
2022-09-03T13:31:28.206Z,100236.94
2022-09-03T13:36:32.629Z,100222.53
2022-09-03T13:41:38.724Z,100220.91
2022-09-03T13:46:45.761Z,100205.31
2022-09-03T13:51:50.529Z,100208.00
2022-09-03T13:56:57.690Z,100202.06
2022-09-03T14:02:08.508Z,100196.22
2022-09-03T14:07:14.750Z,100203.56
2022-09-03T14:12:19.551Z,100193.59
2022-09-03T14:17:32.073Z,100201.56
2022-09-03T14:22:42.436Z,100190.03
2022-09-03T14:27:45.155Z,100198.75
2022-09-03T14:32:51.421Z,100191.75
2022-09-03T14:38:12.413Z,100192.84
2022-09-03T14:43:49.576Z,100190.25
2022-09-03T14:49:05.198Z,100185.56
2022-09-03T14:54:38.391Z,100190.78
2022-09-03T14:59:51.851Z,100187.91
2022-09-03T15:05:09.588Z,100185.56
2022-09-03T15:10:19.140Z,100190.50
2022-09-03T15:15:22.873Z,100197.88
2022-09-03T15:20:33.127Z,100191.13
2022-09-03T15:25:43.508Z,100191.91
2022-09-03T15:30:47.173Z,100187.59
2022-09-03T15:36:08.603Z,100186.25
2022-09-03T15:41:30.939Z,100176.78
2022-09-03T15:46:38.603Z,100173.06
2022-09-03T15:51:47.103Z,100184.19
2022-09-03T15:56:54.674Z,100187.63
2022-09-03T16:01:58.875Z,100186.91
2022-09-03T16:07:05.024Z,100178.25
2022-09-03T16:12:12.331Z,100174.28
2022-09-03T16:17:20.747Z,100180.00
2022-09-03T16:22:27.908Z,100186.50
2022-09-03T16:27:33.593Z,100194.31
2022-09-03T16:32:57.538Z,100207.06
2022-09-03T16:38:10.215Z,100194.31
2022-09-03T16:43:39.700Z,100187.28
2022-09-03T16:48:49.202Z,100189.59
2022-09-03T16:54:08.424Z,100182.78
2022-09-03T16:59:16.885Z,100181.94
2022-09-03T17:04:36.636Z,100179.44
2022-09-03T17:09:56.320Z,100186.50
2022-09-03T17:15:14.168Z,100204.31
2022-09-03T17:20:19.985Z,100201.69
2022-09-03T17:25:29.955Z,100199.59
2022-09-03T17:30:40.600Z,100201.91
2022-09-03T17:35:47.867Z,100205.03
2022-09-03T17:40:59.409Z,100210.59
2022-09-03T17:46:09.635Z,100217.44
2022-09-03T17:51:16.285Z,100217.75
2022-09-03T17:56:24.565Z,100218.06
2022-09-03T18:01:28.741Z,100231.81
2022-09-03T18:06:34.042Z,100241.69
2022-09-03T18:11:39.493Z,100241.38
2022-09-03T18:16:43.341Z,100248.63
2022-09-03T18:22:04.838Z,100248.16
2022-09-03T18:27:28.611Z,100252.44
2022-09-03T18:32:49.437Z,100250.19
2022-09-03T18:38:09.513Z,100265.38
2022-09-03T18:43:33.389Z,100261.56
2022-09-03T18:48:55.064Z,100272.50
2022-09-03T18:54:21.545Z,100274.75
2022-09-03T18:59:51.647Z,100275.06
2022-09-03T19:05:18.189Z,100285.31
2022-09-03T19:10:39.754Z,100284.16
2022-09-03T19:16:04.040Z,100288.59
2022-09-03T19:21:30.045Z,100275.91
2022-09-03T19:26:56.398Z,100281.44
2022-09-03T19:32:19.940Z,100283.19
2022-09-03T19:37:42.084Z,100284.47
2022-09-03T19:43:08.478Z,100287.31
2022-09-03T19:48:47.727Z,100297.66
2022-09-03T19:54:08.135Z,100299.81
2022-09-03T19:59:30.989Z,100303.06
2022-09-03T20:04:54.663Z,100307.91
2022-09-03T20:10:16.647Z,100306.50
2022-09-03T20:15:19.424Z,100306.50
2022-09-03T20:20:25.636Z,100313.75
2022-09-03T20:25:38.904Z,100312.75
2022-09-03T20:30:43.752Z,100314.59
2022-09-03T20:35:53.486Z,100318.00
2022-09-03T20:41:10.603Z,100326.78
2022-09-03T20:46:25.862Z,100337.91
2022-09-03T20:51:34.932Z,100332.09
2022-09-03T20:56:48.057Z,100332.53
2022-09-03T21:01:53.830Z,100324.81
2022-09-03T21:07:00.873Z,100322.75
2022-09-03T21:12:06.813Z,100336.78
2022-09-03T21:17:21.365Z,100329.97
2022-09-03T21:22:29.664Z,100344.31
2022-09-03T21:27:34.506Z,100334.63
2022-09-03T21:32:42.156Z,100337.06
2022-09-03T21:37:51.167Z,100339.03
2022-09-03T21:42:55.198Z,100347.06
2022-09-03T21:47:59.680Z,100345.59
2022-09-03T21:53:04.925Z,100342.59
2022-09-03T21:58:15.094Z,100351.28
2022-09-03T22:03:17.954Z,100354.69
2022-09-03T22:08:24.701Z,100358.41
2022-09-03T22:13:30.949Z,100359.56
2022-09-03T22:18:37.860Z,100362.41
2022-09-03T22:23:48.030Z,100365.19
2022-09-03T22:28:57.741Z,100361.22
2022-09-03T22:34:04.710Z,100357.81
2022-09-03T22:39:15.038Z,100354.97
2022-09-03T22:44:25.876Z,100353.97
2022-09-03T22:49:32.982Z,100353.50
2022-09-03T22:54:44.396Z,100351.22
2022-09-03T22:59:51.113Z,100355.38
2022-09-03T23:05:01.965Z,100348.97
2022-09-03T23:10:07.595Z,100350.53
2022-09-03T23:15:11.431Z,100351.69
2022-09-03T23:20:16.136Z,100360.66
2022-09-03T23:25:21.415Z,100358.41
2022-09-03T23:30:24.131Z,100363.66
2022-09-03T23:35:28.042Z,100360.56
2022-09-03T23:40:45.953Z,100368.94
2022-09-03T23:45:51.378Z,100372.63
2022-09-03T23:50:59.254Z,100370.22
2022-09-03T23:56:09.084Z,100367.22
